Time;durP1;ratioP1;P1;durP2;ratioP2;P2;SDS_P1;SDS_P2;PMS_P1;PMS_P2;Temp;Humidity;BMP_temperature;BMP_pressure;BME280_temperature;BME280_humidity;BME280_pressure;Samples;Min_cycle;Max_cycle;Signal;HPM_P1;HPM_P2
2021/09/08 00:01:43;;;;;;;15.00;7.57;;;;;;;;;;5033850;28;20458;-55
2021/09/08 00:04:09;;;;;;;17.33;8.52;;;;;;;;;;5033294;28;20026;-55
2021/09/08 00:06:35;;;;;;;13.98;7.53;;;;;;;;;;5035083;28;20447;-55
2021/09/08 00:09:01;;;;;;;17.75;7.93;;;;;;;;;;5034042;28;20028;-55
2021/09/08 00:11:27;;;;;;;18.83;9.40;;;;;;;;;;5034679;28;20037;-55
2021/09/08 00:13:53;;;;;;;15.18;7.75;;;;;;;;;;5033892;28;20099;-55
2021/09/08 00:16:19;;;;;;;17.20;8.25;;;;;;;;;;5034511;28;20034;-55
2021/09/08 00:18:45;;;;;;;17.75;8.38;;;;;;;;;;5033798;28;20461;-55
2021/09/08 00:21:11;;;;;;;17.23;8.48;;;;;;;;;;5034850;28;20451;-55
2021/09/08 00:23:38;;;;;;;14.05;7.80;;;;;;;;;;5033834;28;20041;-54
2021/09/08 00:26:03;;;;;;;20.98;7.80;;;;;;;;;;5034431;28;20030;-55
2021/09/08 00:28:29;;;;;;;17.55;9.55;;;;;;;;;;5033259;28;20075;-55
2021/09/08 00:30:55;;;;;;;15.75;8.65;;;;;;;;;;5033835;28;20270;-54
2021/09/08 00:33:22;;;;;;;19.55;9.20;;;;;;;;;;5033824;28;20060;-54
2021/09/08 00:35:48;;;;;;;16.60;8.88;;;;;;;;;;5033465;28;20363;-55
2021/09/08 00:38:14;;;;;;;14.55;8.10;;;;;;;;;;5034817;28;20013;-55
2021/09/08 00:40:41;;;;;;;14.65;7.95;;;;;;;;;;5034025;28;20118;-55
2021/09/08 00:43:07;;;;;;;18.55;8.20;;;;;;;;;;5034313;28;20100;-55
2021/09/08 00:45:33;;;;;;;16.30;8.05;;;;;;;;;;5032651;28;20428;-54
2021/09/08 00:47:59;;;;;;;16.05;8.38;;;;;;;;;;5031060;28;20108;-55
2021/09/08 00:50:26;;;;;;;20.58;8.90;;;;;;;;;;5033708;28;20037;-55
2021/09/08 00:52:53;;;;;;;15.57;8.13;;;;;;;;;;5034217;28;20051;-55
2021/09/08 00:55:21;;;;;;;14.07;8.25;;;;;;;;;;5032301;28;20030;-55
2021/09/08 00:57:49;;;;;;;18.92;8.85;;;;;;;;;;5033877;28;20028;-54
2021/09/08 01:00:15;;;;;;;16.92;8.57;;;;;;;;;;5033824;28;20044;-55
2021/09/08 01:02:41;;;;;;;18.40;9.02;;;;;;;;;;5033032;28;20073;-54
2021/09/08 01:05:07;;;;;;;15.15;7.88;;;;;;;;;;5032740;28;20427;-55
2021/09/08 01:07:33;;;;;;;17.95;8.38;;;;;;;;;;5033783;28;20455;-56
2021/09/08 01:09:59;;;;;;;18.38;8.63;;;;;;;;;;5033023;28;20052;-55
2021/09/08 01:12:25;;;;;;;18.73;9.05;;;;;;;;;;5032212;28;20025;-55
2021/09/08 01:14:51;;;;;;;18.13;8.77;;;;;;;;;;5032455;28;20140;-55
2021/09/08 01:17:21;;;;;;;14.68;8.07;;;;;;;;;;5033590;28;20028;-55
2021/09/08 01:19:47;;;;;;;14.55;8.80;;;;;;;;;;5032634;28;20026;-55
2021/09/08 01:22:13;;;;;;;18.35;8.70;;;;;;;;;;5033434;28;20452;-55
2021/09/08 01:24:43;;;;;;;15.68;7.60;;;;;;;;;;5032256;28;20516;-55
2021/09/08 01:27:09;;;;;;;22.40;9.27;;;;;;;;;;5032614;28;20021;-55
2021/09/08 01:29:35;;;;;;;21.80;8.50;;;;;;;;;;5031918;28;20116;-55
2021/09/08 01:32:01;;;;;;;17.27;7.75;;;;;;;;;;5033169;28;20176;-55
2021/09/08 01:34:28;;;;;;;17.30;8.85;;;;;;;;;;5031566;28;20112;-55
2021/09/08 01:36:54;;;;;;;13.85;7.50;;;;;;;;;;5033363;28;20036;-55
2021/09/08 01:39:21;;;;;;;18.15;8.35;;;;;;;;;;5032272;28;20025;-55
2021/09/08 01:41:48;;;;;;;14.77;8.63;;;;;;;;;;5037234;28;20075;-55
2021/09/08 01:44:17;;;;;;;15.95;8.38;;;;;;;;;;5034736;28;20025;-55
2021/09/08 01:46:43;;;;;;;16.08;7.78;;;;;;;;;;5032646;28;20387;-55
2021/09/08 01:49:09;;;;;;;15.77;8.50;;;;;;;;;;5032434;28;20034;-54
2021/09/08 01:51:35;;;;;;;17.02;9.13;;;;;;;;;;5032883;28;20462;-55
2021/09/08 01:54:01;;;;;;;17.33;8.57;;;;;;;;;;5032224;28;20029;-54
2021/09/08 01:56:27;;;;;;;20.08;8.27;;;;;;;;;;5032038;28;20116;-55
2021/09/08 01:58:53;;;;;;;19.58;9.32;;;;;;;;;;5032966;28;20637;-55
2021/09/08 02:01:22;;;;;;;22.30;8.75;;;;;;;;;;5032636;28;20112;-55
2021/09/08 02:03:48;;;;;;;18.30;8.77;;;;;;;;;;5031415;28;20148;-55
2021/09/08 02:06:23;;;;;;;18.85;9.13;;;;;;;;;;5033144;28;20426;-55
2021/09/08 02:08:50;;;;;;;16.85;8.85;;;;;;;;;;5032212;28;20013;-54
2021/09/08 02:11:16;;;;;;;18.70;8.95;;;;;;;;;;5032192;28;20060;-54
2021/09/08 02:13:42;;;;;;;16.40;8.52;;;;;;;;;;5031919;28;20025;-55
2021/09/08 02:16:08;;;;;;;21.42;9.77;;;;;;;;;;5031271;28;20036;-55
2021/09/08 02:18:34;;;;;;;16.88;8.27;;;;;;;;;;5031953;28;20026;-55
2021/09/08 02:21:00;;;;;;;20.48;9.32;;;;;;;;;;5047895;28;20026;-55
2021/09/08 02:23:26;;;;;;;20.00;8.10;;;;;;;;;;5032493;28;20040;-55
2021/09/08 02:25:52;;;;;;;16.20;8.82;;;;;;;;;;5031964;28;20021;-55
2021/09/08 02:28:20;;;;;;;18.88;8.82;;;;;;;;;;5032614;28;20427;-55
2021/09/08 02:30:47;;;;;;;16.67;8.52;;;;;;;;;;5032366;28;20398;-55
2021/09/08 02:33:13;;;;;;;16.45;7.82;;;;;;;;;;5031110;28;20018;-55
2021/09/08 02:35:38;;;;;;;16.30;8.57;;;;;;;;;;5031675;28;20037;-55
2021/09/08 02:38:04;;;;;;;14.82;8.23;;;;;;;;;;5034613;28;20094;-55
2021/09/08 02:40:30;;;;;;;16.80;8.82;;;;;;;;;;5044315;28;20032;-55
2021/09/08 02:42:56;;;;;;;16.83;8.23;;;;;;;;;;5031737;28;20113;-55
2021/09/08 02:45:22;;;;;;;18.05;8.52;;;;;;;;;;5031512;28;20028;-55
2021/09/08 02:47:48;;;;;;;22.55;9.00;;;;;;;;;;5032245;28;20026;-54
2021/09/08 02:50:14;;;;;;;17.13;7.78;;;;;;;;;;5031966;28;20038;-55
2021/09/08 02:52:40;;;;;;;16.58;8.70;;;;;;;;;;5034780;28;20022;-55
2021/09/08 02:55:07;;;;;;;24.20;8.68;;;;;;;;;;5035174;28;20124;-55
2021/09/08 02:57:33;;;;;;;18.73;7.45;;;;;;;;;;5035775;28;20075;-54
2021/09/08 02:59:58;;;;;;;14.40;8.45;;;;;;;;;;5035725;28;20033;-55
2021/09/08 03:02:24;;;;;;;15.07;8.40;;;;;;;;;;5036124;28;20032;-55
2021/09/08 03:04:50;;;;;;;16.02;7.65;;;;;;;;;;5034630;28;20386;-55
2021/09/08 03:07:16;;;;;;;24.80;8.20;;;;;;;;;;5036180;28;20064;-55
2021/09/08 03:09:42;;;;;;;18.95;8.57;;;;;;;;;;5035661;28;20018;-54
2021/09/08 03:12:08;;;;;;;18.15;8.13;;;;;;;;;;5035736;28;20055;-54
2021/09/08 03:14:34;;;;;;;18.58;8.63;;;;;;;;;;5034551;28;20028;-55
2021/09/08 03:17:00;;;;;;;21.55;8.88;;;;;;;;;;5035825;28;20055;-55
2021/09/08 03:19:26;;;;;;;17.88;8.10;;;;;;;;;;5034481;28;20033;-55
2021/09/08 03:21:52;;;;;;;18.85;8.32;;;;;;;;;;5036066;28;20053;-54
2021/09/08 03:24:18;;;;;;;15.43;7.90;;;;;;;;;;5035016;28;20106;-55
2021/09/08 03:26:44;;;;;;;15.35;8.45;;;;;;;;;;5035452;28;20388;-55
2021/09/08 03:29:10;;;;;;;17.77;8.57;;;;;;;;;;5035331;28;20033;-55
2021/09/08 03:31:36;;;;;;;22.85;9.57;;;;;;;;;;5035282;28;20048;-55
2021/09/08 03:34:02;;;;;;;16.92;8.38;;;;;;;;;;5033377;28;20464;-55
2021/09/08 03:36:28;;;;;;;17.88;9.13;;;;;;;;;;5035673;28;20374;-54
2021/09/08 03:38:54;;;;;;;16.95;9.05;;;;;;;;;;5035445;28;20380;-54
2021/09/08 03:41:20;;;;;;;16.25;8.10;;;;;;;;;;5034901;28;20526;-55
2021/09/08 03:43:46;;;;;;;16.33;8.15;;;;;;;;;;5034134;28;20025;-55
2021/09/08 03:46:12;;;;;;;14.75;7.85;;;;;;;;;;5035347;28;20025;-55
2021/09/08 03:48:38;;;;;;;15.70;8.05;;;;;;;;;;5035574;28;20439;-55
2021/09/08 03:51:04;;;;;;;16.80;7.53;;;;;;;;;;5034481;28;20044;-55
2021/09/08 03:53:30;;;;;;;17.55;8.88;;;;;;;;;;5034452;28;20017;-55
2021/09/08 03:55:56;;;;;;;20.85;8.00;;;;;;;;;;5034076;28;20034;-55
2021/09/08 03:58:22;;;;;;;15.85;8.23;;;;;;;;;;5035084;28;20172;-55
2021/09/08 04:00:48;;;;;;;15.20;8.07;;;;;;;;;;5034899;28;20459;-54
2021/09/08 04:03:14;;;;;;;19.02;8.30;;;;;;;;;;5034827;28;20112;-55
2021/09/08 04:05:40;;;;;;;18.38;8.90;;;;;;;;;;5033466;28;20030;-54
2021/09/08 04:08:06;;;;;;;20.13;8.10;;;;;;;;;;5035025;28;20469;-54
2021/09/08 04:10:32;;;;;;;17.58;8.35;;;;;;;;;;5034159;28;20044;-55
2021/09/08 04:12:58;;;;;;;15.73;8.40;;;;;;;;;;5034826;28;20021;-54
2021/09/08 04:15:24;;;;;;;13.40;7.68;;;;;;;;;;5033967;28;20132;-55
2021/09/08 04:17:50;;;;;;;14.35;7.25;;;;;;;;;;5034526;28;20026;-55
2021/09/08 04:20:16;;;;;;;16.67;7.72;;;;;;;;;;5033584;28;20042;-55
2021/09/08 04:22:42;;;;;;;15.07;8.35;;;;;;;;;;5034848;28;20025;-55
2021/09/08 04:25:08;;;;;;;14.93;8.18;;;;;;;;;;5032843;28;20026;-54
2021/09/08 04:27:34;;;;;;;25.38;8.88;;;;;;;;;;5034715;28;20018;-55
2021/09/08 04:30:00;;;;;;;15.63;7.35;;;;;;;;;;5034082;28;20033;-55
2021/09/08 04:32:26;;;;;;;17.85;7.70;;;;;;;;;;5034682;28;20486;-55
2021/09/08 04:34:52;;;;;;;15.82;8.77;;;;;;;;;;5032334;28;20216;-55
2021/09/08 04:37:18;;;;;;;18.15;8.88;;;;;;;;;;5034563;28;20021;-55
2021/09/08 04:39:44;;;;;;;22.50;8.63;;;;;;;;;;5034118;28;20466;-55
2021/09/08 04:42:10;;;;;;;13.75;7.40;;;;;;;;;;5033852;28;20031;-55
2021/09/08 04:44:36;;;;;;;18.80;9.35;;;;;;;;;;5033702;28;20021;-55
2021/09/08 04:47:02;;;;;;;16.23;8.15;;;;;;;;;;5033926;28;20067;-54
2021/09/08 04:49:28;;;;;;;21.75;8.80;;;;;;;;;;5033397;28;20018;-55
2021/09/08 04:51:54;;;;;;;16.48;8.38;;;;;;;;;;5034263;28;20065;-55
2021/09/08 04:54:20;;;;;;;20.77;8.88;;;;;;;;;;5033146;28;20021;-55
2021/09/08 04:56:46;;;;;;;20.00;8.90;;;;;;;;;;5033491;28;20124;-55
2021/09/08 04:59:12;;;;;;;15.85;8.45;;;;;;;;;;5034085;28;20051;-55
2021/09/08 05:01:38;;;;;;;14.63;8.25;;;;;;;;;;5033681;28;20033;-56
2021/09/08 05:04:04;;;;;;;11.35;6.85;;;;;;;;;;5032911;28;20109;-55
2021/09/08 05:06:30;;;;;;;20.92;8.63;;;;;;;;;;5032941;28;20033;-55
2021/09/08 05:08:56;;;;;;;18.95;8.85;;;;;;;;;;5033584;28;20112;-55
2021/09/08 05:11:22;;;;;;;16.35;8.48;;;;;;;;;;5032864;28;20220;-55
2021/09/08 05:13:48;;;;;;;16.85;8.27;;;;;;;;;;5032614;28;20340;-55
2021/09/08 05:16:14;;;;;;;23.50;8.48;;;;;;;;;;5033630;28;20511;-55
2021/09/08 05:18:40;;;;;;;15.02;7.32;;;;;;;;;;5033359;28;20383;-55
2021/09/08 05:21:06;;;;;;;19.50;8.70;;;;;;;;;;5032213;28;20418;-55
2021/09/08 05:23:32;;;;;;;17.30;8.35;;;;;;;;;;5032822;28;20024;-55
2021/09/08 05:25:58;;;;;;;15.18;7.68;;;;;;;;;;5033290;28;20029;-55
2021/09/08 05:28:24;;;;;;;17.73;8.00;;;;;;;;;;5032787;28;20027;-56
2021/09/08 05:30:51;;;;;;;21.73;8.07;;;;;;;;;;5032953;28;20394;-55
2021/09/08 05:33:17;;;;;;;17.27;7.28;;;;;;;;;;5032936;28;20060;-55
2021/09/08 05:35:42;;;;;;;14.82;7.32;;;;;;;;;;5031356;28;20061;-55
2021/09/08 05:38:09;;;;;;;14.15;7.90;;;;;;;;;;5033014;28;20018;-55
2021/09/08 05:40:34;;;;;;;16.70;8.55;;;;;;;;;;5032926;28;20033;-55
2021/09/08 05:43:01;;;;;;;19.15;8.35;;;;;;;;;;5033106;28;20032;-55
2021/09/08 05:45:27;;;;;;;15.93;7.97;;;;;;;;;;5030425;28;20033;-55
2021/09/08 05:47:53;;;;;;;14.93;7.03;;;;;;;;;;5032944;28;20029;-55
2021/09/08 05:50:19;;;;;;;13.43;7.15;;;;;;;;;;5032056;28;20103;-55
2021/09/08 05:52:45;;;;;;;14.35;8.40;;;;;;;;;;5032546;28;20133;-55
2021/09/08 05:55:11;;;;;;;18.17;8.18;;;;;;;;;;5032236;28;20018;-55
2021/09/08 05:57:37;;;;;;;12.93;7.40;;;;;;;;;;5032496;28;20032;-55
2021/09/08 06:00:04;;;;;;;16.13;8.18;;;;;;;;;;5032707;28;20444;-56
2021/09/08 06:02:30;;;;;;;12.88;7.20;;;;;;;;;;5033093;28;20048;-55
2021/09/08 06:04:56;;;;;;;17.98;8.38;;;;;;;;;;5031242;28;20513;-55
2021/09/08 06:07:22;;;;;;;16.50;8.18;;;;;;;;;;5032455;28;20025;-55
2021/09/08 06:09:48;;;;;;;15.18;8.23;;;;;;;;;;5032545;28;20057;-55
2021/09/08 06:12:14;;;;;;;17.13;8.95;;;;;;;;;;5032302;28;20037;-55
2021/09/08 06:14:40;;;;;;;18.33;7.40;;;;;;;;;;5031581;28;20444;-55
2021/09/08 06:17:06;;;;;;;17.92;8.32;;;;;;;;;;5033035;28;20025;-56
2021/09/08 06:19:33;;;;;;;13.15;8.10;;;;;;;;;;5032445;28;20017;-56
2021/09/08 06:21:59;;;;;;;17.88;9.48;;;;;;;;;;5031579;28;20470;-56
2021/09/08 06:24:25;;;;;;;17.55;7.70;;;;;;;;;;5031401;28;20030;-56
2021/09/08 06:26:51;;;;;;;16.38;8.98;;;;;;;;;;5033807;28;20018;-56
2021/09/08 06:29:17;;;;;;;22.65;9.10;;;;;;;;;;5036142;28;20029;-56
2021/09/08 06:31:43;;;;;;;16.58;9.52;;;;;;;;;;5036786;28;20029;-56
2021/09/08 06:34:09;;;;;;;15.90;9.30;;;;;;;;;;5035445;28;20059;-56
2021/09/08 06:36:35;;;;;;;19.88;10.18;;;;;;;;;;5034309;28;20076;-56
2021/09/08 06:39:02;;;;;;;13.65;7.78;;;;;;;;;;5036434;28;20033;-56
2021/09/08 06:41:28;;;;;;;16.17;9.00;;;;;;;;;;5035775;28;20048;-56
2021/09/08 06:43:53;;;;;;;18.60;9.05;;;;;;;;;;5035252;28;20017;-55
2021/09/08 06:46:19;;;;;;;19.45;9.88;;;;;;;;;;5036299;28;20546;-56
2021/09/08 06:48:46;;;;;;;21.88;10.82;;;;;;;;;;5036393;28;20029;-56
2021/09/08 06:51:12;;;;;;;23.90;10.77;;;;;;;;;;5034856;28;20033;-56
2021/09/08 06:53:38;;;;;;;21.30;11.70;;;;;;;;;;5035666;28;20452;-55
2021/09/08 06:56:06;;;;;;;23.25;11.23;;;;;;;;;;5035882;28;20041;-55
2021/09/08 06:58:32;;;;;;;25.15;13.00;;;;;;;;;;5035335;28;20470;-56
2021/09/08 07:00:58;;;;;;;26.25;11.88;;;;;;;;;;5036375;28;20030;-52
2021/09/08 07:03:24;;;;;;;22.20;11.55;;;;;;;;;;5036585;28;20398;-52
2021/09/08 07:05:50;;;;;;;26.83;12.95;;;;;;;;;;5034017;28;20030;-52
2021/09/08 07:08:16;;;;;;;25.40;13.88;;;;;;;;;;5029988;28;20013;-52
2021/09/08 07:10:42;;;;;;;21.98;12.07;;;;;;;;;;5035262;28;20455;-51
2021/09/08 07:13:09;;;;;;;22.38;12.00;;;;;;;;;;5035077;28;20088;-52
2021/09/08 07:15:35;;;;;;;24.45;13.52;;;;;;;;;;5034655;28;20040;-52
2021/09/08 07:18:01;;;;;;;27.60;13.32;;;;;;;;;;5035335;28;20013;-51
2021/09/08 07:20:27;;;;;;;24.58;13.10;;;;;;;;;;5035203;28;20116;-52
2021/09/08 07:22:53;;;;;;;20.98;12.88;;;;;;;;;;5034403;28;20125;-51
2021/09/08 07:25:19;;;;;;;32.78;12.93;;;;;;;;;;5034273;28;20112;-52
2021/09/08 07:27:45;;;;;;;27.25;12.43;;;;;;;;;;5032568;28;20021;-52
2021/09/08 07:30:11;;;;;;;23.60;13.07;;;;;;;;;;5034651;28;20035;-52
2021/09/08 07:32:37;;;;;;;24.40;13.77;;;;;;;;;;5035034;28;20028;-52
2021/09/08 07:35:04;;;;;;;31.80;14.25;;;;;;;;;;5033645;28;20379;-51
2021/09/08 07:37:30;;;;;;;28.27;13.10;;;;;;;;;;5033760;28;20035;-52
2021/09/08 07:39:56;;;;;;;27.00;12.70;;;;;;;;;;5034353;28;20021;-52
2021/09/08 07:42:22;;;;;;;22.77;13.05;;;;;;;;;;5033185;28;20048;-52
2021/09/08 07:44:48;;;;;;;34.92;16.30;;;;;;;;;;5033798;28;20033;-52
2021/09/08 07:47:14;;;;;;;25.42;14.18;;;;;;;;;;5035394;28;20022;-52
2021/09/08 07:49:40;;;;;;;25.70;14.65;;;;;;;;;;5035274;28;20049;-52
2021/09/08 07:52:06;;;;;;;33.10;16.60;;;;;;;;;;5034096;28;20041;-51
2021/09/08 07:54:32;;;;;;;27.35;13.63;;;;;;;;;;5034264;28;20462;-51
2021/09/08 07:56:58;;;;;;;25.58;13.15;;;;;;;;;;5034511;28;20115;-52
2021/09/08 07:59:24;;;;;;;25.23;14.43;;;;;;;;;;5035136;28;20022;-51
2021/09/08 08:01:50;;;;;;;31.48;14.88;;;;;;;;;;5035048;28;20071;-51
2021/09/08 08:04:16;;;;;;;27.63;14.85;;;;;;;;;;5034533;28;20021;-51
2021/09/08 08:06:42;;;;;;;24.65;13.90;;;;;;;;;;5033701;28;20060;-52
2021/09/08 08:09:08;;;;;;;25.10;12.80;;;;;;;;;;5034827;28;20367;-51
2021/09/08 08:11:34;;;;;;;23.63;13.68;;;;;;;;;;5034478;28;20037;-52
2021/09/08 08:14:00;;;;;;;27.30;13.18;;;;;;;;;;5034243;28;20021;-52
2021/09/08 08:16:26;;;;;;;23.55;12.50;;;;;;;;;;5035130;28;20034;-51
2021/09/08 08:18:52;;;;;;;27.35;13.70;;;;;;;;;;5034274;28;20026;-52
2021/09/08 08:21:18;;;;;;;22.90;12.20;;;;;;;;;;5033958;28;20087;-52
2021/09/08 08:23:44;;;;;;;26.30;14.13;;;;;;;;;;5034122;28;20022;-52
2021/09/08 08:26:10;;;;;;;23.38;12.80;;;;;;;;;;5034535;28;20033;-51
2021/09/08 08:28:36;;;;;;;23.67;13.57;;;;;;;;;;5034362;28;20156;-51
2021/09/08 08:31:02;;;;;;;25.48;11.85;;;;;;;;;;5034448;28;20044;-51
2021/09/08 08:33:28;;;;;;;18.95;11.80;;;;;;;;;;5033714;28;20032;-51
2021/09/08 08:35:54;;;;;;;22.60;11.25;;;;;;;;;;5034240;28;20096;-51
2021/09/08 08:38:21;;;;;;;22.35;11.35;;;;;;;;;;5033236;28;20463;-51
2021/09/08 08:40:47;;;;;;;22.63;11.38;;;;;;;;;;5034881;28;20041;-52
2021/09/08 08:43:13;;;;;;;22.63;10.15;;;;;;;;;;5033664;28;20032;-51
2021/09/08 08:45:39;;;;;;;21.52;11.60;;;;;;;;;;5033587;28;20041;-51
2021/09/08 08:48:06;;;;;;;27.80;10.18;;;;;;;;;;5034124;28;20115;-51
2021/09/08 08:50:32;;;;;;;23.23;10.25;;;;;;;;;;5033281;28;20028;-51
2021/09/08 08:52:58;;;;;;;25.00;11.15;;;;;;;;;;5032664;28;20099;-51
2021/09/08 08:55:25;;;;;;;22.00;10.90;;;;;;;;;;5033746;28;20033;-51
2021/09/08 08:57:51;;;;;;;25.80;10.13;;;;;;;;;;5033385;28;20048;-51
2021/09/08 09:00:19;;;;;;;17.85;9.38;;;;;;;;;;5033946;28;20028;-51
2021/09/08 09:02:47;;;;;;;17.40;10.65;;;;;;;;;;5034170;28;20025;-51
2021/09/08 09:05:27;;;;;;;19.95;10.70;;;;;;;;;;5032883;28;20033;-51
2021/09/08 09:07:53;;;;;;;20.63;8.75;;;;;;;;;;5032588;28;20092;-51
2021/09/08 09:10:19;;;;;;;17.15;8.60;;;;;;;;;;5033863;28;20472;-51
2021/09/08 09:12:45;;;;;;;24.30;10.20;;;;;;;;;;5032947;28;20036;-51
2021/09/08 09:15:13;;;;;;;25.17;11.07;;;;;;;;;;5033230;28;20037;-51
2021/09/08 09:17:39;;;;;;;17.83;10.05;;;;;;;;;;5033845;28;20025;-51
2021/09/08 09:20:07;;;;;;;17.13;8.70;;;;;;;;;;5033871;28;20029;-51
2021/09/08 09:22:40;;;;;;;18.27;9.55;;;;;;;;;;5031703;28;20393;-51
2021/09/08 09:25:08;;;;;;;19.25;9.73;;;;;;;;;;5032484;28;20037;-51
2021/09/08 09:27:35;;;;;;;24.88;10.07;;;;;;;;;;5032565;28;20452;-51
2021/09/08 09:30:05;;;;;;;17.48;9.80;;;;;;;;;;5033002;28;20116;-51
2021/09/08 09:32:50;;;;;;;21.00;9.65;;;;;;;;;;5029917;28;20108;-51
2021/09/08 09:35:18;;;;;;;19.25;9.52;;;;;;;;;;5030606;28;20057;-51
2021/09/08 09:37:44;;;;;;;16.58;7.82;;;;;;;;;;5031813;28;20033;-51
2021/09/08 09:40:10;;;;;;;16.73;10.25;;;;;;;;;;5032074;28;20025;-51
2021/09/08 09:42:38;;;;;;;16.73;9.05;;;;;;;;;;5032097;28;20071;-51
2021/09/08 09:45:05;;;;;;;12.68;7.07;;;;;;;;;;5032346;28;20029;-52
2021/09/08 09:47:35;;;;;;;20.95;9.07;;;;;;;;;;5033364;28;20064;-51
2021/09/08 09:50:01;;;;;;;;;;;;;;;;;;5033647;28;20024;-51
2021/09/08 09:52:27;;;;;;;19.25;10.13;;;;;;;;;;5031735;28;19913;-51
2021/09/08 09:54:53;;;;;;;20.95;9.25;;;;;;;;;;5032148;28;20044;-51
2021/09/08 09:57:19;;;;;;;23.27;10.10;;;;;;;;;;5030546;28;20072;-51
2021/09/08 09:59:46;;;;;;;16.40;7.90;;;;;;;;;;5032089;28;20076;-51
2021/09/08 10:02:12;;;;;;;22.20;8.50;;;;;;;;;;5032830;28;20033;-51
2021/09/08 10:04:38;;;;;;;20.63;9.57;;;;;;;;;;5024448;28;20045;-52
2021/09/08 10:07:06;;;;;;;18.95;10.45;;;;;;;;;;5032701;28;20108;-51
2021/09/08 10:09:33;;;;;;;23.08;10.70;;;;;;;;;;5031898;28;20113;-51
2021/09/08 10:12:00;;;;;;;18.33;8.75;;;;;;;;;;5033368;28;20084;-51
2021/09/08 10:14:27;;;;;;;17.95;9.65;;;;;;;;;;5022804;28;20084;-51
2021/09/08 10:16:53;;;;;;;18.58;10.18;;;;;;;;;;5032699;28;20355;-51
2021/09/08 10:19:23;;;;;;;18.70;9.70;;;;;;;;;;5032966;28;20017;-51
2021/09/08 10:21:50;;;;;;;14.07;8.90;;;;;;;;;;5032913;28;20025;-51
2021/09/08 10:24:17;;;;;;;13.32;7.60;;;;;;;;;;5030835;28;20030;-51
2021/09/08 10:26:43;;;;;;;16.27;7.65;;;;;;;;;;5032587;28;20351;-51
2021/09/08 10:29:10;;;;;;;15.63;9.27;;;;;;;;;;5032143;28;20033;-51
2021/09/08 10:31:41;;;;;;;19.63;8.20;;;;;;;;;;5023227;28;20037;-51
2021/09/08 10:34:08;;;;;;;16.75;9.88;;;;;;;;;;5031434;28;20021;-51
2021/09/08 10:36:35;;;;;;;17.67;9.07;;;;;;;;;;5032095;28;20046;-51
2021/09/08 10:39:06;;;;;;;16.08;9.13;;;;;;;;;;5031343;28;20026;-51
2021/09/08 10:41:48;;;;;;;17.33;9.13;;;;;;;;;;5031696;28;20032;-51
2021/09/08 10:44:15;;;;;;;14.48;7.88;;;;;;;;;;5031048;28;20025;-51
2021/09/08 10:46:48;;;;;;;15.35;7.93;;;;;;;;;;5032129;28;20040;-51
2021/09/08 10:49:35;;;;;;;16.67;7.90;;;;;;;;;;5032608;28;20017;-51
2021/09/08 10:52:01;;;;;;;17.77;9.23;;;;;;;;;;5029644;28;20037;-51
2021/09/08 10:54:27;;;;;;;17.90;9.50;;;;;;;;;;5023373;28;20037;-51
2021/09/08 10:56:53;;;;;;;19.42;10.70;;;;;;;;;;5032373;28;20049;-51
2021/09/08 10:59:19;;;;;;;18.67;8.68;;;;;;;;;;5031160;28;20049;-51
2021/09/08 11:01:45;;;;;;;19.75;8.32;;;;;;;;;;5030152;28;20247;-51
2021/09/08 11:04:14;;;;;;;18.48;9.52;;;;;;;;;;5031414;28;20474;-51
2021/09/08 11:06:48;;;;;;;17.48;9.15;;;;;;;;;;5031827;28;20034;-51
2021/09/08 11:09:16;;;;;;;15.50;8.02;;;;;;;;;;5031695;28;20033;-51
2021/09/08 11:12:08;;;;;;;14.90;7.63;;;;;;;;;;5032216;28;20037;-51
2021/09/08 11:14:47;;;;;;;15.23;8.35;;;;;;;;;;5034478;28;20304;-51
2021/09/08 11:17:23;;;;;;;27.50;9.70;;;;;;;;;;5035950;28;20028;-51
2021/09/08 11:19:50;;;;;;;16.77;10.02;;;;;;;;;;5035975;28;20029;-51
2021/09/08 11:22:19;;;;;;;13.93;7.85;;;;;;;;;;5036149;28;20018;-51
2021/09/08 11:24:45;;;;;;;15.60;9.10;;;;;;;;;;5034039;28;20040;-51
2021/09/08 11:27:11;;;;;;;14.02;8.25;;;;;;;;;;5035728;28;20021;-51
2021/09/08 11:29:37;;;;;;;19.35;9.50;;;;;;;;;;5034926;28;20029;-52
2021/09/08 11:32:03;;;;;;;21.20;8.02;;;;;;;;;;5035794;28;20034;-51
2021/09/08 11:34:30;;;;;;;14.18;7.93;;;;;;;;;;5034704;28;20017;-51
2021/09/08 11:36:58;;;;;;;20.02;8.82;;;;;;;;;;5035503;28;20071;-51
2021/09/08 11:39:24;;;;;;;16.85;8.63;;;;;;;;;;5034461;28;20537;-51
2021/09/08 11:41:54;;;;;;;18.60;9.32;;;;;;;;;;5035035;28;20029;-51
2021/09/08 11:44:21;;;;;;;16.85;9.40;;;;;;;;;;5034156;28;20108;-51
2021/09/08 11:46:47;;;;;;;16.55;7.72;;;;;;;;;;5033799;28;20153;-51
2021/09/08 11:49:13;;;;;;;16.00;7.65;;;;;;;;;;5036015;28;20316;-51
2021/09/08 11:51:40;;;;;;;19.35;8.75;;;;;;;;;;5034788;28;20454;-51
2021/09/08 11:54:08;;;;;;;15.70;8.98;;;;;;;;;;5031566;28;20049;-51
2021/09/08 11:56:37;;;;;;;17.35;8.65;;;;;;;;;;5035385;28;20112;-51
2021/09/08 11:59:04;;;;;;;17.80;8.18;;;;;;;;;;5034861;28;20398;-51
2021/09/08 12:01:39;;;;;;;16.45;7.97;;;;;;;;;;5034550;28;20029;-51
2021/09/08 12:04:06;;;;;;;16.30;8.40;;;;;;;;;;5034207;28;20026;-51
2021/09/08 12:06:33;;;;;;;15.45;8.32;;;;;;;;;;5035101;28;20026;-51
2021/09/08 12:08:59;;;;;;;18.45;8.57;;;;;;;;;;5034102;28;20033;-51
2021/09/08 12:11:32;;;;;;;16.23;9.20;;;;;;;;;;5034724;28;20171;-51
2021/09/08 12:14:13;;;;;;;13.23;7.47;;;;;;;;;;5033403;28;20025;-51
2021/09/08 12:16:40;;;;;;;13.93;7.40;;;;;;;;;;5027835;28;20116;-51
2021/09/08 12:19:12;;;;;;;15.95;7.82;;;;;;;;;;5035074;28;20029;-51
2021/09/08 12:21:38;;;;;;;12.25;7.50;;;;;;;;;;5034855;28;20062;-51
2021/09/08 12:24:22;;;;;;;12.68;7.75;;;;;;;;;;5033019;28;20033;-51
2021/09/08 12:26:48;;;;;;;14.50;7.18;;;;;;;;;;5033888;28;20055;-51
2021/09/08 12:29:14;;;;;;;15.25;7.55;;;;;;;;;;5033512;28;20498;-51
2021/09/08 12:31:54;;;;;;;17.75;7.35;;;;;;;;;;5033994;28;20041;-51
2021/09/08 12:34:21;;;;;;;14.55;8.13;;;;;;;;;;5033876;28;20116;-51
2021/09/08 12:36:48;;;;;;;16.90;7.30;;;;;;;;;;5034498;28;20044;-51
2021/09/08 12:39:21;;;;;;;15.75;7.22;;;;;;;;;;5033401;28;20030;-51
2021/09/08 12:42:00;;;;;;;13.75;7.88;;;;;;;;;;5034275;28;20030;-51
2021/09/08 12:44:29;;;;;;;11.73;7.37;;;;;;;;;;5033007;28;20021;-51
2021/09/08 12:46:55;;;;;;;12.20;6.78;;;;;;;;;;5034409;28;20731;-51
2021/09/08 12:49:24;;;;;;;14.90;7.57;;;;;;;;;;5033943;28;20034;-51
2021/09/08 12:51:50;;;;;;;15.53;7.93;;;;;;;;;;5034134;28;20211;-51
2021/09/08 12:54:17;;;;;;;15.25;6.93;;;;;;;;;;5032527;28;20029;-51
2021/09/08 12:56:44;;;;;;;13.73;7.35;;;;;;;;;;5034281;28;20021;-52
2021/09/08 12:59:10;;;;;;;16.45;6.90;;;;;;;;;;5033141;28;20455;-51
2021/09/08 13:01:36;;;;;;;14.52;7.13;;;;;;;;;;5033608;28;20447;-51
2021/09/08 13:04:03;;;;;;;12.63;6.97;;;;;;;;;;5032899;28;20356;-52
2021/09/08 13:06:29;;;;;;;17.05;7.72;;;;;;;;;;5033738;28;20130;-51
2021/09/08 13:08:55;;;;;;;10.43;6.20;;;;;;;;;;5033881;28;20028;-51
2021/09/08 13:11:21;;;;;;;12.50;6.38;;;;;;;;;;5032797;28;20081;-51
2021/09/08 13:13:47;;;;;;;13.52;6.53;;;;;;;;;;5032812;28;20466;-51
2021/09/08 13:16:13;;;;;;;12.02;6.80;;;;;;;;;;5033639;28;20026;-51
2021/09/08 13:18:39;;;;;;;16.42;7.13;;;;;;;;;;5033288;28;20021;-51
2021/09/08 13:21:05;;;;;;;11.70;6.40;;;;;;;;;;5033399;28;20411;-52
2021/09/08 13:23:32;;;;;;;13.68;7.45;;;;;;;;;;5033081;28;20465;-51
2021/09/08 13:25:58;;;;;;;14.18;7.18;;;;;;;;;;5032663;28;20029;-51
2021/09/08 13:28:24;;;;;;;14.88;7.63;;;;;;;;;;5032963;28;20025;-51
2021/09/08 13:30:50;;;;;;;12.98;6.85;;;;;;;;;;5033295;28;20428;-52
2021/09/08 13:33:16;;;;;;;11.30;6.15;;;;;;;;;;5033192;28;20362;-53
2021/09/08 13:35:43;;;;;;;21.92;5.78;;;;;;;;;;5025775;28;20126;-52
2021/09/08 13:38:09;;;;;;;12.52;6.00;;;;;;;;;;5025187;28;20053;-52
2021/09/08 13:40:35;;;;;;;15.68;6.60;;;;;;;;;;5032440;28;20037;-51
2021/09/08 13:43:01;;;;;;;9.15;5.60;;;;;;;;;;5033101;28;20025;-52
2021/09/08 13:45:27;;;;;;;10.77;6.38;;;;;;;;;;5032394;28;20033;-52
2021/09/08 13:47:53;;;;;;;10.73;6.40;;;;;;;;;;5032849;28;20052;-51
2021/09/08 13:50:19;;;;;;;10.15;5.35;;;;;;;;;;5033222;28;20120;-51
2021/09/08 13:52:46;;;;;;;11.10;5.68;;;;;;;;;;5032824;28;20128;-52
2021/09/08 13:55:12;;;;;;;7.40;4.63;;;;;;;;;;5031125;28;20084;-52
2021/09/08 13:57:38;;;;;;;12.75;4.93;;;;;;;;;;5032591;28;20029;-51
2021/09/08 14:00:05;;;;;;;6.80;4.93;;;;;;;;;;5032507;28;20028;-52
2021/09/08 14:02:31;;;;;;;14.10;5.80;;;;;;;;;;5032562;28;20072;-51
2021/09/08 14:04:57;;;;;;;9.75;5.75;;;;;;;;;;5032199;28;20017;-51
2021/09/08 14:07:23;;;;;;;11.00;5.97;;;;;;;;;;5033287;28;20112;-51
2021/09/08 14:09:50;;;;;;;10.40;5.30;;;;;;;;;;5031575;28;20032;-51
2021/09/08 14:12:18;;;;;;;10.43;5.60;;;;;;;;;;5031727;28;20061;-51
2021/09/08 14:14:44;;;;;;;10.90;5.18;;;;;;;;;;5030238;28;20025;-51
2021/09/08 14:17:10;;;;;;;7.88;4.75;;;;;;;;;;5031621;28;20095;-51
2021/09/08 14:19:37;;;;;;;10.82;5.22;;;;;;;;;;5032632;28;20025;-51
2021/09/08 14:22:04;;;;;;;7.30;4.32;;;;;;;;;;5032991;28;20025;-52
2021/09/08 14:24:30;;;;;;;12.82;5.47;;;;;;;;;;5032276;28;20022;-51
2021/09/08 14:26:56;;;;;;;7.30;4.35;;;;;;;;;;5024388;28;20036;-52